Latest Weather Observations for Tarcoola

IDS60801

Issued at 3:31 pm CDT Saturday 28 February 2015 (issued every 30 minutes, with the page automatically refreshed every 10 minutes)

About weather observations | Map of weather stations | Latest weather observations for SA | Other Formats
Station Details ID: 016098 Name: TARCOOLA AERO Lat: -30.71 Lon: 134.58 Height: 123.0 m
Data from the previous 72 hours. | See also: Recent months at Tarcoola
Date/Time
CDT
Temp
°C
App
Temp
°C
Dew
Point
Rel
Hum
%
Delta-T
°C
Wind Press
QNH
hPa
Press
MSL
hPa
Rain
since 9 am
mm
Dir
 
Spd
km/h
Gust
km/h
Spd
kts
Gust
kts
28/03:30pm 36.6 29.4 10.7 21 15.4 SW 39 50 21 27 1005.3 1004.5 0.0
28/03:00pm 38.2 30.6 8.9 17 17.0 SW 39 52 21 28 1005.0 1004.2 0.0
28/02:52pm 38.7 31.3 8.4 16 17.5 SSW 37 50 20 27 1005.0 1004.2 0.0
28/02:30pm 39.9 33.2 3.9 11 19.6 WSW 28 43 15 23 1004.9 1004.1 0.0
28/02:00pm 40.4 33.8 -0.2 8 20.8 W 24 37 13 20 1005.1 1004.3 0.0
28/01:30pm 41.1 35.0 0.3 8 21.2 WNW 22 35 12 19 1005.1 1004.3 0.0
28/01:00pm 39.9 32.5 -0.5 8 20.5 NW 28 41 15 22 1005.5 1004.7 0.0
28/12:30pm 39.1 32.0 -1.1 8 20.2 NNW 26 35 14 19 1005.7 1004.9 0.0
28/12:00pm 39.4 32.0 -0.9 8 20.3 NNW 28 39 15 21 1006.1 1005.3 0.0
28/11:30am 39.0 30.8 -1.2 8 20.1 NNW 32 41 17 22 1006.3 1005.5 0.0
28/11:00am 37.9 29.6 -2.0 8 19.5 NNW 32 43 17 23 1006.3 1005.5 0.0
28/10:30am 36.7 29.2 -1.3 9 18.7 NNW 28 35 15 19 1006.4 1005.6 0.0
28/10:00am 34.3 27.5 -1.7 10 17.3 N 24 30 13 16 1006.3 1005.5 0.0
28/09:30am 32.5 26.8 -0.5 12 16.0 N 19 24 10 13 1006.3 1005.5 0.0
28/09:00am 29.1 25.3 -1.1 14 14.2 N 9 13 5 7 1006.5 1005.7 0.0
28/08:30am 25.4 21.6 -0.6 18 12.0 NNE 9 11 5 6 1006.2 1005.4 0.0
28/08:00am 24.0 20.4 0.4 21 11.0 NE 9 11 5 6 1005.8 1005.0 0.0
28/07:30am 22.1 18.5 0.6 24 9.9 NE 9 9 5 5 1005.3 1004.5 0.0
28/07:00am 20.9 17.2 0.2 25 9.3 ENE 9 11 5 6 1005.1 1004.3 0.0
28/06:30am 21.2 17.6 0.4 25 9.4 NE 9 9 5 5 1004.9 1004.1 0.0
28/06:00am 21.7 18.1 0.3 24 9.7 NE 9 9 5 5 1004.8 1004.0 0.0
28/05:30am 22.5 19.3 0.9 24 10.0 NE 7 9 4 5 1004.5 1003.7 0.0
28/05:00am 23.7 20.7 2.0 24 10.3 ENE 7 9 4 5 1004.4 1003.6 0.0
28/04:30am 23.5 20.6 2.4 25 10.1 ENE 7 7 4 4 1004.4 1003.6 0.0
28/04:00am 24.7 21.8 2.8 24 10.7 NE 7 9 4 5 1004.4 1003.6 0.0
28/03:30am 24.6 21.4 3.3 25 10.5 ENE 9 9 5 5 1004.3 1003.5 0.0
28/03:00am 25.6 23.0 4.1 25 10.8 ENE 7 7 4 4 1004.6 1003.8 0.0
28/02:30am 25.4 22.5 4.5 26 10.6 ENE 9 11 5 6 1004.7 1003.9 0.0
28/02:00am 26.1 23.5 4.0 24 11.1 ENE 7 9 4 5 1005.0 1004.2 0.0
28/01:30am 28.8 24.4 5.0 22 12.4 E 17 19 9 10 1005.1 1004.3 0.0
28/01:00am 29.0 25.0 5.1 22 12.4 ENE 15 17 8 9 1005.4 1004.6 0.0
28/12:30am 29.9 26.3 5.2 21 13.0 E 13 17 7 9 1005.5 1004.7 0.0
28/12:00am 30.6 25.9 5.1 20 13.4 E 19 22 10 12 1005.6 1004.8 0.0
 
Date/Time
CDT
Temp
°C
App
Temp
°C
Dew
Point
Rel
Hum
%
Delta-T
°C
Wind Press
QNH
hPa
Press
MSL
hPa
Rain
since 9 am
mm
Dir
 
Spd
km/h
Gust
km/h
Spd
kts
Gust
kts
27/11:30pm 31.3 26.5 5.7 20 13.7 ESE 20 26 11 14 1005.6 1004.8 0.0
27/11:00pm 31.1 26.4 6.2 21 13.4 ESE 20 26 11 14 1005.9 1005.1 0.0
27/10:30pm 31.3 26.7 6.4 21 13.5 ESE 20 30 11 16 1005.8 1005.0 0.0
27/10:00pm 33.1 27.6 2.0 14 15.8 ESE 20 30 11 16 1005.7 1004.9 0.0
27/09:30pm 34.7 31.0 -0.1 11 17.3 SE 9 20 5 11 1005.5 1004.7 0.0
27/09:00pm 34.7 31.9 -0.1 11 17.3 SSE 4 13 2 7 1005.5 1004.7 0.0
27/08:30pm 35.4 32.2 0.5 11 17.6 SE 7 11 4 6 1005.3 1004.5 0.0
27/08:00pm 35.9 33.8 -0.5 10 18.0 CALM 0 0 0 0 1005.1 1004.3 0.0
27/07:30pm 36.5 33.4 0.0 10 18.3 NW 6 13 3 7 1005.0 1004.2 0.0
27/07:00pm 36.9 34.6 0.3 10 18.5 NNE 2 7 1 4 1004.9 1004.1 0.0
27/06:30pm 36.9 33.6 0.3 10 18.5 NNW 7 13 4 7 1004.9 1004.1 0.0
27/06:00pm 37.2 32.1 0.5 10 18.7 NNW 17 20 9 11 1004.7 1003.9 0.0
27/05:30pm 37.2 32.4 0.5 10 18.7 NNW 15 28 8 15 1004.7 1003.9 0.0
27/05:00pm 37.2 31.1 0.5 10 18.6 NNW 22 32 12 17 1004.9 1004.1 0.0
27/04:30pm 38.1 33.8 1.2 10 19.1 NW 13 20 7 11 1004.9 1004.1 0.0
27/04:00pm 37.3 32.3 -0.9 9 19.0 N 15 41 8 22 1005.3 1004.5 0.0
27/03:30pm 38.0 32.4 -0.3 9 19.3 NW 19 30 10 16 1005.7 1004.9 0.0
27/03:00pm 37.6 30.8 -2.2 8 19.5 N 24 37 13 20 1006.2 1005.4 0.0
27/02:30pm 38.8 33.0 -1.4 8 20.0 N 19 33 10 18 1006.7 1006.0 0.0
27/02:00pm 38.5 31.4 -1.6 8 19.8 NNW 26 39 14 21 1007.2 1006.5 0.0
27/01:30pm 37.9 30.7 -2.0 8 19.6 N 26 41 14 22 1007.7 1007.0 0.0
27/01:00pm 36.8 29.7 -1.2 9 18.7 N 26 46 14 25 1008.3 1007.6 0.0
27/12:30pm 37.0 29.9 -1.1 9 18.9 N 26 35 14 19 1008.9 1008.2 0.0
27/12:00pm 36.5 29.8 -1.4 9 18.6 N 24 48 13 26 1009.2 1008.5 0.0
27/11:30am 35.9 29.3 -0.5 10 18.1 NNE 24 35 13 19 1009.3 1008.6 0.0
27/11:00am 36.4 29.8 -0.1 10 18.2 NNE 24 35 13 19 1009.4 1008.7 0.0
27/10:30am 34.2 26.5 -0.4 11 17.0 NNE 30 41 16 22 1009.3 1008.6 0.0
27/10:00am 32.9 25.9 -0.2 12 16.2 NE 26 33 14 18 1009.2 1008.5 0.0
27/09:30am 30.7 24.9 0.2 14 14.8 NNE 20 28 11 15 1009.2 1008.5 0.0
27/09:00am 28.8 23.8 1.3 17 13.4 NE 17 22 9 12 1009.1 1008.4 0.0
27/08:30am 27.5 24.1 3.9 22 11.9 ENE 11 13 6 7 1009.1 1008.4 0.0
27/08:00am 24.2 21.7 4.6 28 9.8 ENE 7 9 4 5 1009.0 1008.3 0.0
27/07:30am 22.9 19.5 3.9 29 9.3 ENE 11 13 6 7 1008.6 1007.9 0.0
27/07:00am 23.9 20.6 4.3 28 9.7 ENE 11 13 6 7 1008.3 1007.6 0.0
27/06:30am 25.8 21.4 4.9 26 10.7 E 17 20 9 11 1007.8 1007.1 0.0
27/06:00am 26.0 21.6 5.0 26 10.7 E 17 20 9 11 1007.6 1006.9 0.0
27/05:30am 26.7 21.9 4.5 24 11.3 E 19 22 10 12 1007.4 1006.7 0.0
27/05:00am 27.4 22.7 5.1 24 11.5 E 19 26 10 14 1007.6 1006.9 0.0
27/04:30am 27.5 22.5 4.5 23 11.8 E 20 28 11 15 1007.3 1006.6 0.0
27/04:00am 27.6 22.5 4.0 22 12.0 E 20 24 11 13 1007.3 1006.6 0.0
27/03:30am 27.7 22.5 2.7 20 12.4 E 19 26 10 14 1007.6 1006.9 0.0
27/03:00am 24.4 20.2 -0.7 19 11.4 E 11 15 6 8 1007.8 1007.1 0.0
27/02:30am 24.9 21.6 0.4 20 11.4 ENE 7 9 4 5 1008.0 1007.3 0.0
27/02:00am 25.6 22.3 0.3 19 11.8 ENE 7 9 4 5 1008.3 1007.6 0.0
27/01:30am 25.5 21.8 0.2 19 11.8 E 9 11 5 6 1008.4 1007.7 0.0
27/01:00am 25.3 21.5 -0.7 18 11.9 E 9 11 5 6 1008.6 1007.9 0.0
27/12:30am 25.8 22.2 -3.7 14 12.9 ENE 6 9 3 5 1008.7 1008.0 0.0
27/12:00am 27.3 23.8 -2.5 14 13.4 E 6 7 3 4 1008.9 1008.2 0.0
 
Date/Time
CDT
Temp
°C
App
Temp
°C
Dew
Point
Rel
Hum
%
Delta-T
°C
Wind Press
QNH
hPa
Press
MSL
hPa
Rain
since 9 am
mm
Dir
 
Spd
km/h
Gust
km/h
Spd
kts
Gust
kts
26/11:30pm 27.6 24.2 -2.3 14 13.6 NE 6 7 3 4 1009.4 1008.7 0.0
26/11:00pm 29.0 24.6 -2.2 13 14.3 E 11 13 6 7 1009.6 1008.9 0.0
26/10:30pm 29.8 25.0 -2.6 12 14.9 E 13 15 7 8 1009.7 1009.0 0.0
26/10:00pm 29.7 25.6 -2.7 12 14.8 E 9 11 5 6 1009.7 1009.0 0.0
26/09:30pm 31.5 27.1 -2.5 11 15.8 E 11 13 6 7 1009.6 1008.9 0.0
26/09:00pm 33.2 28.0 -2.5 10 16.8 E 15 19 8 10 1009.2 1008.5 0.0
26/08:30pm 34.1 28.8 -0.5 11 17.0 E 17 20 9 11 1009.1 1008.4 0.0
26/08:00pm 35.1 29.3 0.2 11 17.4 E 20 26 11 14 1008.8 1008.1 0.0
26/07:30pm 36.1 30.7 1.0 11 17.9 ESE 19 24 10 13 1008.6 1007.9 0.0
26/07:00pm 36.8 31.8 1.5 11 18.1 E 17 28 9 15 1008.3 1007.6 0.0
26/06:30pm 37.2 31.9 1.8 11 18.4 ESE 19 30 10 16 1008.1 1007.4 0.0
26/06:00pm 37.5 33.0 2.1 11 18.5 SE 15 30 8 16 1008.1 1007.4 0.0
26/05:30pm 37.1 32.2 1.8 11 18.3 ESE 17 28 9 15 1008.3 1007.6 0.0
26/05:00pm 37.9 32.3 1.0 10 18.9 ESE 20 32 11 17 1008.4 1007.7 0.0
26/04:30pm 37.6 32.5 0.8 10 18.8 ESE 17 28 9 15 1008.7 1008.0 0.0
26/04:00pm 37.3 32.2 0.6 10 18.7 SSE 17 24 9 13 1009.0 1008.3 0.0
26/03:30pm 36.5 32.4 0.0 10 18.3 SSE 11 20 6 11 1009.2 1008.5 0.0
26/03:00pm 36.6 32.0 -1.4 9 18.7 SE 13 24 7 13 1009.6 1008.9 0.0
26/02:30pm 35.7 31.0 -2.0 9 18.2 SE 13 22 7 12 1010.0 1009.3 0.0
26/02:00pm 35.9 30.6 -0.5 10 18.0 ESE 17 24 9 13 1010.3 1009.6 0.0
26/01:30pm 34.9 30.3 -1.2 10 17.6 SE 13 26 7 14 1010.9 1010.2 0.0
26/01:00pm 34.5 29.8 -1.5 10 17.4 SE 13 20 7 11 1011.4 1010.7 0.0
26/12:30pm 34.4 30.1 -1.6 10 17.4 ESE 11 20 6 11 1011.8 1011.1 0.0
26/12:00pm 33.6 28.6 -0.9 11 16.7 E 15 20 8 11 1012.3 1011.5 0.0
26/11:30am 32.5 27.1 -1.7 11 16.2 E 17 26 9 14 1012.7 1011.9 0.0
26/11:00am 31.6 26.2 -1.2 12 15.6 ESE 17 22 9 12 1012.9 1012.1 0.0
26/10:30am 29.5 24.0 -1.8 13 14.5 ESE 17 22 9 12 1012.9 1012.1 0.0
26/10:00am 28.3 22.7 -2.7 13 14.0 ESE 17 20 9 11 1012.9 1012.1 0.0
26/09:30am 26.8 22.0 -2.9 14 13.2 SE 13 19 7 10 1012.9 1012.1 0.0
26/09:00am 23.5 20.1 -2.2 18 11.3 SW 6 9 3 5 1012.7 1011.9 0.0
26/08:30am 19.9 17.4 -3.7 20 9.7 CALM 0 0 0 0 1012.4 1011.6 0.0
26/08:00am 18.4 15.1 -4.3 21 9.1 SSW 4 9 2 5 1012.1 1011.3 0.0
26/07:30am 18.6 14.8 -3.5 22 9.0 SW 7 9 4 5 1011.7 1011.0 0.0
26/07:00am 18.7 15.4 -4.0 21 9.2 SW 4 11 2 6 1011.5 1010.8 0.0
26/06:30am 18.4 15.9 -4.3 21 9.1 CALM 0 0 0 0 1011.4 1010.7 0.0
26/06:00am 18.0 15.4 -4.6 21 9.0 CALM 0 0 0 0 1011.3 1010.6 0.0
26/05:30am 16.9 13.2 -4.3 23 8.4 WSW 6 7 3 4 1011.4 1010.7 0.0
26/05:00am 16.8 12.9 -5.0 22 8.5 WSW 7 7 4 4 1011.2 1010.5 0.0
26/04:30am 17.6 14.7 -4.3 22 8.7 W 2 6 1 3 1011.2 1010.5 0.0
26/04:00am 18.6 14.1 -3.5 22 9.0 WSW 11 13 6 7 1011.3 1010.6 0.0
26/03:30am 18.7 14.1 -4.0 21 9.2 SW 11 13 6 7 1011.2 1010.5 0.0
26/03:00am 19.2 15.0 -4.3 20 9.5 WSW 9 11 5 6 1011.4 1010.7 0.0
26/02:30am 20.0 15.4 -4.3 19 9.9 SW 11 13 6 7 1011.4 1010.7 0.0
26/02:00am 20.7 16.4 -4.4 18 10.3 SW 9 11 5 6 1011.7 1011.0 0.0
26/01:30am 21.6 17.0 -4.5 17 10.8 SW 11 13 6 7 1012.0 1011.2 0.0
26/01:00am 23.3 19.5 -3.9 16 11.5 SSE 7 11 4 6 1012.3 1011.5 0.0
26/12:30am 24.5 21.5 -4.7 14 12.3 S 2 7 1 4 1012.6 1011.8 0.0
26/12:00am 25.8 20.4 -4.7 13 13.0 SSW 15 20 8 11 1012.8 1012.0 0.0
 
Date/Time
CDT
Temp
°C
App
Temp
°C
Dew
Point
Rel
Hum
%
Delta-T
°C
Wind Press
QNH
hPa
Press
MSL
hPa
Rain
since 9 am
mm
Dir
 
Spd
km/h
Gust
km/h
Spd
kts
Gust
kts
25/11:30pm 26.8 20.7 -3.9 13 13.4 S 19 24 10 13 1013.0 1012.2 0.0
25/11:00pm 27.2 22.3 -3.6 13 13.6 SSW 13 22 7 12 1013.1 1012.3 0.0
25/10:30pm 28.4 23.2 -2.6 13 14.1 S 15 20 8 11 1012.9 1012.1 0.0
25/10:00pm 30.0 23.3 -1.4 13 14.7 S 24 35 13 19 1012.5 1011.7 0.0
25/09:30pm 30.4 24.4 -3.3 11 15.3 SSW 19 32 10 17 1012.3 1011.5 0.0
25/09:00pm 29.7 25.2 -6.5 9 15.5 S 9 9 5 5 1011.7 1011.0 0.0
25/08:30pm 32.0 27.6 -6.3 8 16.8 SSW 9 11 5 6 1011.4 1010.7 0.0
25/08:00pm 34.0 29.1 -6.6 7 18.0 SW 11 19 6 10 1011.3 1010.6 0.0
25/07:30pm 35.3 29.4 -5.7 7 18.6 SSW 17 24 9 13 1011.0 1010.3 0.0
25/07:00pm 35.4 29.5 -5.6 7 18.6 SW 17 26 9 14 1010.9 1010.2 0.0
25/06:30pm 36.0 30.1 -5.2 7 19.0 SSW 17 30 9 16 1010.8 1010.1 0.0
25/06:00pm 36.3 30.8 -5.0 7 19.1 SW 15 26 8 14 1010.7 1010.0 0.0
25/05:30pm 37.0 32.0 -4.4 7 19.4 SSW 13 20 7 11 1010.6 1009.9 0.0
25/05:00pm 36.1 32.4 -3.3 8 18.7 S 7 17 4 9 1010.9 1010.2 0.0
25/04:30pm 35.6 32.0 -3.7 8 18.5 S 6 17 3 9 1011.3 1010.6 0.0
25/04:00pm 35.6 32.0 -3.7 8 18.5 NNE 6 17 3 9 1011.6 1010.9 0.0

Other Formats:

Comma delimited format used in spreadsheet applications
http://www.bom.gov.au/fwo/IDS60801/IDS60801.94655.axf

JavaScript Object Notation format (JSON) in row-major order
http://www.bom.gov.au/fwo/IDS60801/IDS60801.94655.json